sensor_id;sensor_type;location;lat;lon;timestamp;P1;durP1;ratioP1;P2;durP2;ratioP2
17586;SDS011;8912;52.336;17.172;2022-07-25T00:01:34;8.95;;;7.38;;
17586;SDS011;8912;52.336;17.172;2022-07-25T00:04:03;8.55;;;7.80;;
17586;SDS011;8912;52.336;17.172;2022-07-25T00:06:37;8.77;;;7.88;;
17586;SDS011;8912;52.336;17.172;2022-07-25T00:09:09;8.30;;;7.60;;
17586;SDS011;8912;52.336;17.172;2022-07-25T00:11:38;7.95;;;7.25;;
17586;SDS011;8912;52.336;17.172;2022-07-25T00:14:06;10.07;;;7.63;;
17586;SDS011;8912;52.336;17.172;2022-07-25T00:16:36;7.68;;;6.95;;
17586;SDS011;8912;52.336;17.172;2022-07-25T00:19:05;9.30;;;8.40;;
17586;SDS011;8912;52.336;17.172;2022-07-25T00:21:34;8.07;;;7.38;;
17586;SDS011;8912;52.336;17.172;2022-07-25T00:24:03;8.95;;;8.05;;
17586;SDS011;8912;52.336;17.172;2022-07-25T00:26:35;8.57;;;7.78;;
17586;SDS011;8912;52.336;17.172;2022-07-25T00:29:06;8.10;;;7.40;;
17586;SDS011;8912;52.336;17.172;2022-07-25T00:31:35;8.13;;;7.43;;
17586;SDS011;8912;52.336;17.172;2022-07-25T00:34:04;7.50;;;6.90;;
17586;SDS011;8912;52.336;17.172;2022-07-25T00:36:33;9.05;;;8.25;;
17586;SDS011;8912;52.336;17.172;2022-07-25T00:39:02;8.98;;;8.18;;
17586;SDS011;8912;52.336;17.172;2022-07-25T00:41:32;8.02;;;7.32;;
17586;SDS011;8912;52.336;17.172;2022-07-25T00:44:02;8.23;;;7.50;;
17586;SDS011;8912;52.336;17.172;2022-07-25T00:46:32;8.48;;;7.65;;
17586;SDS011;8912;52.336;17.172;2022-07-25T00:49:01;9.27;;;7.65;;
17586;SDS011;8912;52.336;17.172;2022-07-25T00:51:30;7.47;;;6.88;;
17586;SDS011;8912;52.336;17.172;2022-07-25T00:53:59;9.32;;;8.32;;
17586;SDS011;8912;52.336;17.172;2022-07-25T00:56:29;8.60;;;7.70;;
17586;SDS011;8912;52.336;17.172;2022-07-25T00:58:58;8.30;;;7.63;;
17586;SDS011;8912;52.336;17.172;2022-07-25T01:01:29;9.35;;;8.38;;
17586;SDS011;8912;52.336;17.172;2022-07-25T01:03:58;9.02;;;8.13;;
17586;SDS011;8912;52.336;17.172;2022-07-25T01:06:27;8.50;;;7.80;;
17586;SDS011;8912;52.336;17.172;2022-07-25T01:08:56;8.75;;;8.05;;
17586;SDS011;8912;52.336;17.172;2022-07-25T01:11:25;9.35;;;8.52;;
17586;SDS011;8912;52.336;17.172;2022-07-25T01:13:54;9.45;;;8.60;;
17586;SDS011;8912;52.336;17.172;2022-07-25T01:16:23;8.55;;;7.90;;
17586;SDS011;8912;52.336;17.172;2022-07-25T01:18:54;9.43;;;8.52;;
17586;SDS011;8912;52.336;17.172;2022-07-25T01:21:24;9.20;;;8.40;;
17586;SDS011;8912;52.336;17.172;2022-07-25T01:23:54;9.20;;;8.25;;
17586;SDS011;8912;52.336;17.172;2022-07-25T01:26:23;9.30;;;8.10;;
17586;SDS011;8912;52.336;17.172;2022-07-25T01:28:51;9.82;;;9.02;;
17586;SDS011;8912;52.336;17.172;2022-07-25T01:31:20;12.25;;;9.05;;
17586;SDS011;8912;52.336;17.172;2022-07-25T01:33:49;11.40;;;9.43;;
17586;SDS011;8912;52.336;17.172;2022-07-25T01:36:18;10.83;;;9.13;;
17586;SDS011;8912;52.336;17.172;2022-07-25T01:38:48;10.20;;;9.18;;
17586;SDS011;8912;52.336;17.172;2022-07-25T01:41:20;9.50;;;8.57;;
17586;SDS011;8912;52.336;17.172;2022-07-25T01:43:48;11.48;;;9.00;;
17586;SDS011;8912;52.336;17.172;2022-07-25T01:46:17;9.90;;;9.10;;
17586;SDS011;8912;52.336;17.172;2022-07-25T01:48:46;10.73;;;9.38;;
17586;SDS011;8912;52.336;17.172;2022-07-25T01:51:15;9.65;;;8.85;;
17586;SDS011;8912;52.336;17.172;2022-07-25T01:53:48;10.00;;;9.17;;
17586;SDS011;8912;52.336;17.172;2022-07-25T01:56:16;10.05;;;9.25;;
17586;SDS011;8912;52.336;17.172;2022-07-25T01:58:48;10.65;;;9.63;;
17586;SDS011;8912;52.336;17.172;2022-07-25T02:01:17;9.77;;;8.88;;
17586;SDS011;8912;52.336;17.172;2022-07-25T02:03:48;9.80;;;8.70;;
17586;SDS011;8912;52.336;17.172;2022-07-25T02:06:16;10.33;;;9.43;;
17586;SDS011;8912;52.336;17.172;2022-07-25T02:08:48;10.13;;;9.23;;
17586;SDS011;8912;52.336;17.172;2022-07-25T02:11:17;9.87;;;8.87;;
17586;SDS011;8912;52.336;17.172;2022-07-25T02:13:46;10.85;;;9.85;;
17586;SDS011;8912;52.336;17.172;2022-07-25T02:16:14;10.43;;;9.52;;
17586;SDS011;8912;52.336;17.172;2022-07-25T02:18:43;10.17;;;9.23;;
17586;SDS011;8912;52.336;17.172;2022-07-25T02:21:13;10.10;;;9.20;;
17586;SDS011;8912;52.336;17.172;2022-07-25T02:23:42;10.73;;;9.83;;
17586;SDS011;8912;52.336;17.172;2022-07-25T02:26:13;10.40;;;9.32;;
17586;SDS011;8912;52.336;17.172;2022-07-25T02:28:42;12.18;;;9.85;;
17586;SDS011;8912;52.336;17.172;2022-07-25T02:31:11;11.10;;;10.18;;
17586;SDS011;8912;52.336;17.172;2022-07-25T02:33:40;13.93;;;9.95;;
17586;SDS011;8912;52.336;17.172;2022-07-25T02:36:09;11.00;;;10.03;;
17586;SDS011;8912;52.336;17.172;2022-07-25T02:38:39;11.57;;;10.48;;
17586;SDS011;8912;52.336;17.172;2022-07-25T02:41:07;11.07;;;9.93;;
17586;SDS011;8912;52.336;17.172;2022-07-25T02:43:38;11.82;;;10.70;;
17586;SDS011;8912;52.336;17.172;2022-07-25T02:46:07;11.27;;;10.18;;
17586;SDS011;8912;52.336;17.172;2022-07-25T02:48:36;11.73;;;10.73;;
17586;SDS011;8912;52.336;17.172;2022-07-25T02:51:05;11.93;;;10.93;;
17586;SDS011;8912;52.336;17.172;2022-07-25T02:53:34;11.67;;;10.60;;
17586;SDS011;8912;52.336;17.172;2022-07-25T02:56:23;11.27;;;10.07;;
17586;SDS011;8912;52.336;17.172;2022-07-25T02:58:57;11.27;;;10.27;;
17586;SDS011;8912;52.336;17.172;2022-07-25T03:01:26;12.65;;;10.43;;
17586;SDS011;8912;52.336;17.172;2022-07-25T03:03:55;19.60;;;12.30;;
17586;SDS011;8912;52.336;17.172;2022-07-25T03:06:24;17.38;;;12.30;;
17586;SDS011;8912;52.336;17.172;2022-07-25T03:08:52;13.30;;;10.40;;
17586;SDS011;8912;52.336;17.172;2022-07-25T03:11:21;11.38;;;10.38;;
17586;SDS011;8912;52.336;17.172;2022-07-25T03:13:50;10.73;;;9.73;;
17586;SDS011;8912;52.336;17.172;2022-07-25T03:16:20;10.43;;;9.45;;
17586;SDS011;8912;52.336;17.172;2022-07-25T03:18:49;10.07;;;9.27;;
17586;SDS011;8912;52.336;17.172;2022-07-25T03:21:18;10.50;;;9.70;;
17586;SDS011;8912;52.336;17.172;2022-07-25T03:23:46;10.18;;;9.38;;
17586;SDS011;8912;52.336;17.172;2022-07-25T03:26:29;9.55;;;8.65;;
17586;SDS011;8912;52.336;17.172;2022-07-25T03:28:58;9.70;;;8.90;;
17586;SDS011;8912;52.336;17.172;2022-07-25T03:31:28;10.35;;;9.40;;
17586;SDS011;8912;52.336;17.172;2022-07-25T03:33:57;10.32;;;9.38;;
17586;SDS011;8912;52.336;17.172;2022-07-25T03:36:26;9.48;;;8.63;;
17586;SDS011;8912;52.336;17.172;2022-07-25T03:38:55;8.52;;;7.70;;
17586;SDS011;8912;52.336;17.172;2022-07-25T03:41:25;13.90;;;6.90;;
17586;SDS011;8912;52.336;17.172;2022-07-25T03:43:54;7.95;;;6.85;;
17586;SDS011;8912;52.336;17.172;2022-07-25T03:46:22;7.10;;;6.45;;
17586;SDS011;8912;52.336;17.172;2022-07-25T03:48:53;10.02;;;7.03;;
17586;SDS011;8912;52.336;17.172;2022-07-25T03:51:22;6.70;;;6.10;;
17586;SDS011;8912;52.336;17.172;2022-07-25T03:53:51;5.50;;;5.00;;
17586;SDS011;8912;52.336;17.172;2022-07-25T03:56:35;9.25;;;5.10;;
17586;SDS011;8912;52.336;17.172;2022-07-25T03:59:10;5.75;;;5.15;;
17586;SDS011;8912;52.336;17.172;2022-07-25T04:01:40;6.20;;;4.97;;
17586;SDS011;8912;52.336;17.172;2022-07-25T04:04:12;8.75;;;5.60;;
17586;SDS011;8912;52.336;17.172;2022-07-25T04:06:41;5.47;;;4.90;;
17586;SDS011;8912;52.336;17.172;2022-07-25T04:09:11;7.18;;;4.70;;
17586;SDS011;8912;52.336;17.172;2022-07-25T04:11:41;5.20;;;4.57;;
17586;SDS011;8912;52.336;17.172;2022-07-25T04:14:10;7.50;;;4.43;;
17586;SDS011;8912;52.336;17.172;2022-07-25T04:16:40;8.98;;;4.90;;
17586;SDS011;8912;52.336;17.172;2022-07-25T04:19:09;4.50;;;4.18;;
17586;SDS011;8912;52.336;17.172;2022-07-25T04:21:39;5.85;;;4.45;;
17586;SDS011;8912;52.336;17.172;2022-07-25T04:24:08;5.22;;;4.72;;
17586;SDS011;8912;52.336;17.172;2022-07-25T04:26:37;4.88;;;4.45;;
17586;SDS011;8912;52.336;17.172;2022-07-25T04:29:06;9.93;;;4.45;;
17586;SDS011;8912;52.336;17.172;2022-07-25T04:31:35;10.20;;;4.55;;
17586;SDS011;8912;52.336;17.172;2022-07-25T04:34:04;4.78;;;4.40;;
17586;SDS011;8912;52.336;17.172;2022-07-25T04:36:33;5.10;;;4.60;;
17586;SDS011;8912;52.336;17.172;2022-07-25T04:39:04;5.38;;;4.32;;
17586;SDS011;8912;52.336;17.172;2022-07-25T04:41:33;5.75;;;4.25;;
17586;SDS011;8912;52.336;17.172;2022-07-25T04:44:01;4.45;;;4.05;;
17586;SDS011;8912;52.336;17.172;2022-07-25T04:46:33;4.82;;;4.43;;
17586;SDS011;8912;52.336;17.172;2022-07-25T04:49:03;5.82;;;4.32;;
17586;SDS011;8912;52.336;17.172;2022-07-25T04:51:31;5.05;;;4.55;;
17586;SDS011;8912;52.336;17.172;2022-07-25T04:54:00;4.43;;;4.00;;
17586;SDS011;8912;52.336;17.172;2022-07-25T04:56:32;5.50;;;4.55;;
17586;SDS011;8912;52.336;17.172;2022-07-25T04:59:00;5.15;;;4.68;;
17586;SDS011;8912;52.336;17.172;2022-07-25T05:01:32;5.18;;;4.57;;
17586;SDS011;8912;52.336;17.172;2022-07-25T05:04:01;5.15;;;4.20;;
17586;SDS011;8912;52.336;17.172;2022-07-25T05:06:31;6.32;;;4.03;;
17586;SDS011;8912;52.336;17.172;2022-07-25T05:09:00;5.05;;;4.55;;
17586;SDS011;8912;52.336;17.172;2022-07-25T05:11:28;4.80;;;4.35;;
17586;SDS011;8912;52.336;17.172;2022-07-25T05:13:59;6.05;;;4.15;;
17586;SDS011;8912;52.336;17.172;2022-07-25T05:16:28;5.45;;;4.20;;
17586;SDS011;8912;52.336;17.172;2022-07-25T05:18:57;4.78;;;3.90;;
17586;SDS011;8912;52.336;17.172;2022-07-25T05:21:26;5.85;;;3.70;;
17586;SDS011;8912;52.336;17.172;2022-07-25T05:23:54;4.45;;;3.85;;
17586;SDS011;8912;52.336;17.172;2022-07-25T05:26:23;5.07;;;4.00;;
17586;SDS011;8912;52.336;17.172;2022-07-25T05:28:52;4.85;;;3.58;;
17586;SDS011;8912;52.336;17.172;2022-07-25T05:31:22;6.28;;;3.80;;
17586;SDS011;8912;52.336;17.172;2022-07-25T05:33:51;5.30;;;4.13;;
17586;SDS011;8912;52.336;17.172;2022-07-25T05:36:20;7.20;;;3.63;;
17586;SDS011;8912;52.336;17.172;2022-07-25T05:38:49;5.43;;;3.60;;
17586;SDS011;8912;52.336;17.172;2022-07-25T05:41:18;4.03;;;3.72;;
17586;SDS011;8912;52.336;17.172;2022-07-25T05:43:47;5.55;;;4.00;;
17586;SDS011;8912;52.336;17.172;2022-07-25T05:46:16;4.47;;;4.07;;
17586;SDS011;8912;52.336;17.172;2022-07-25T05:48:46;5.75;;;4.22;;
17586;SDS011;8912;52.336;17.172;2022-07-25T05:51:15;3.88;;;3.58;;
17586;SDS011;8912;52.336;17.172;2022-07-25T05:53:44;6.28;;;4.15;;
17586;SDS011;8912;52.336;17.172;2022-07-25T05:56:13;5.40;;;4.45;;
17586;SDS011;8912;52.336;17.172;2022-07-25T05:58:42;7.28;;;4.05;;
17586;SDS011;8912;52.336;17.172;2022-07-25T06:01:11;4.13;;;3.72;;
17586;SDS011;8912;52.336;17.172;2022-07-25T06:03:41;4.40;;;3.83;;
17586;SDS011;8912;52.336;17.172;2022-07-25T06:06:11;3.95;;;3.58;;
17586;SDS011;8912;52.336;17.172;2022-07-25T06:08:40;4.85;;;3.78;;
17586;SDS011;8912;52.336;17.172;2022-07-25T06:11:11;6.00;;;3.53;;
17586;SDS011;8912;52.336;17.172;2022-07-25T06:13:40;5.47;;;3.67;;
17586;SDS011;8912;52.336;17.172;2022-07-25T06:16:08;4.70;;;3.35;;
17586;SDS011;8912;52.336;17.172;2022-07-25T06:18:37;6.65;;;3.78;;
17586;SDS011;8912;52.336;17.172;2022-07-25T06:21:06;3.67;;;3.25;;
17586;SDS011;8912;52.336;17.172;2022-07-25T06:23:36;4.70;;;3.20;;
17586;SDS011;8912;52.336;17.172;2022-07-25T06:26:07;3.78;;;3.35;;
17586;SDS011;8912;52.336;17.172;2022-07-25T06:28:36;6.32;;;3.63;;
17586;SDS011;8912;52.336;17.172;2022-07-25T06:31:05;4.30;;;3.70;;
17586;SDS011;8912;52.336;17.172;2022-07-25T06:33:34;4.13;;;3.00;;
17586;SDS011;8912;52.336;17.172;2022-07-25T06:36:03;3.70;;;3.30;;
17586;SDS011;8912;52.336;17.172;2022-07-25T06:38:33;4.38;;;3.03;;
17586;SDS011;8912;52.336;17.172;2022-07-25T06:41:04;4.38;;;3.15;;
17586;SDS011;8912;52.336;17.172;2022-07-25T06:43:33;3.17;;;2.75;;
17586;SDS011;8912;52.336;17.172;2022-07-25T06:46:02;3.90;;;2.83;;
17586;SDS011;8912;52.336;17.172;2022-07-25T06:48:31;5.95;;;2.70;;
17586;SDS011;8912;52.336;17.172;2022-07-25T06:50:59;11.35;;;3.38;;
17586;SDS011;8912;52.336;17.172;2022-07-25T06:53:28;5.00;;;2.47;;
17586;SDS011;8912;52.336;17.172;2022-07-25T06:55:57;7.05;;;3.35;;
17586;SDS011;8912;52.336;17.172;2022-07-25T06:58:27;4.57;;;2.90;;
17586;SDS011;8912;52.336;17.172;2022-07-25T07:00:56;2.90;;;2.45;;
17586;SDS011;8912;52.336;17.172;2022-07-25T07:03:27;4.78;;;2.50;;
17586;SDS011;8912;52.336;17.172;2022-07-25T07:05:56;5.40;;;2.65;;
17586;SDS011;8912;52.336;17.172;2022-07-25T07:08:24;2.95;;;2.60;;
17586;SDS011;8912;52.336;17.172;2022-07-25T07:10:53;3.20;;;2.90;;
17586;SDS011;8912;52.336;17.172;2022-07-25T07:13:22;6.82;;;2.50;;
17586;SDS011;8912;52.336;17.172;2022-07-25T07:15:53;7.18;;;2.80;;
17586;SDS011;8912;52.336;17.172;2022-07-25T07:18:22;5.88;;;2.80;;
17586;SDS011;8912;52.336;17.172;2022-07-25T07:20:51;2.47;;;2.28;;
17586;SDS011;8912;52.336;17.172;2022-07-25T07:23:20;5.50;;;2.25;;
17586;SDS011;8912;52.336;17.172;2022-07-25T07:25:50;3.67;;;2.25;;
17586;SDS011;8912;52.336;17.172;2022-07-25T07:28:19;2.85;;;2.17;;
17586;SDS011;8912;52.336;17.172;2022-07-25T07:30:47;2.13;;;1.92;;
17586;SDS011;8912;52.336;17.172;2022-07-25T07:33:38;3.42;;;2.42;;
17586;SDS011;8912;52.336;17.172;2022-07-25T07:36:07;6.45;;;2.20;;
17586;SDS011;8912;52.336;17.172;2022-07-25T07:38:36;9.20;;;2.90;;
17586;SDS011;8912;52.336;17.172;2022-07-25T07:41:05;3.05;;;1.75;;
17586;SDS011;8912;52.336;17.172;2022-07-25T07:43:35;3.60;;;2.25;;
17586;SDS011;8912;52.336;17.172;2022-07-25T07:46:04;2.33;;;2.13;;
17586;SDS011;8912;52.336;17.172;2022-07-25T07:48:34;2.38;;;1.92;;
17586;SDS011;8912;52.336;17.172;2022-07-25T07:51:05;4.53;;;1.95;;
17586;SDS011;8912;52.336;17.172;2022-07-25T07:53:34;3.13;;;1.98;;
17586;SDS011;8912;52.336;17.172;2022-07-25T07:56:20;2.33;;;2.13;;
17586;SDS011;8912;52.336;17.172;2022-07-25T07:58:49;4.97;;;2.00;;
17586;SDS011;8912;52.336;17.172;2022-07-25T08:01:17;3.25;;;2.03;;
17586;SDS011;8912;52.336;17.172;2022-07-25T08:03:46;3.50;;;2.10;;
17586;SDS011;8912;52.336;17.172;2022-07-25T08:06:17;3.85;;;2.00;;
17586;SDS011;8912;52.336;17.172;2022-07-25T08:08:46;2.15;;;1.85;;
17586;SDS011;8912;52.336;17.172;2022-07-25T08:11:15;6.35;;;1.73;;
17586;SDS011;8912;52.336;17.172;2022-07-25T08:13:45;10.88;;;2.60;;
17586;SDS011;8912;52.336;17.172;2022-07-25T08:16:13;9.27;;;2.05;;
17586;SDS011;8912;52.336;17.172;2022-07-25T08:18:42;3.65;;;2.10;;
17586;SDS011;8912;52.336;17.172;2022-07-25T08:21:11;9.40;;;2.30;;
17586;SDS011;8912;52.336;17.172;2022-07-25T08:23:41;4.13;;;1.85;;
17586;SDS011;8912;52.336;17.172;2022-07-25T08:26:13;2.88;;;1.85;;
17586;SDS011;8912;52.336;17.172;2022-07-25T08:28:41;5.10;;;1.80;;
17586;SDS011;8912;52.336;17.172;2022-07-25T08:31:10;2.65;;;1.40;;
17586;SDS011;8912;52.336;17.172;2022-07-25T08:33:39;2.42;;;1.30;;
17586;SDS011;8912;52.336;17.172;2022-07-25T08:36:08;2.40;;;1.70;;
17586;SDS011;8912;52.336;17.172;2022-07-25T08:38:38;6.03;;;1.80;;
17586;SDS011;8912;52.336;17.172;2022-07-25T08:41:08;1.80;;;1.27;;
17586;SDS011;8912;52.336;17.172;2022-07-25T08:43:37;3.70;;;1.30;;
17586;SDS011;8912;52.336;17.172;2022-07-25T08:46:06;2.67;;;1.60;;
17586;SDS011;8912;52.336;17.172;2022-07-25T08:48:35;3.25;;;1.58;;
17586;SDS011;8912;52.336;17.172;2022-07-25T08:51:06;2.10;;;1.48;;
17586;SDS011;8912;52.336;17.172;2022-07-25T08:53:35;3.83;;;1.58;;
17586;SDS011;8912;52.336;17.172;2022-07-25T08:56:05;5.32;;;1.45;;
17586;SDS011;8912;52.336;17.172;2022-07-25T08:58:44;3.63;;;1.50;;
17586;SDS011;8912;52.336;17.172;2022-07-25T09:01:13;2.33;;;1.55;;
17586;SDS011;8912;52.336;17.172;2022-07-25T09:03:42;3.25;;;1.27;;
17586;SDS011;8912;52.336;17.172;2022-07-25T09:06:15;1.35;;;1.25;;
17586;SDS011;8912;52.336;17.172;2022-07-25T09:08:49;2.92;;;1.23;;
17586;SDS011;8912;52.336;17.172;2022-07-25T09:11:25;2.05;;;1.30;;
17586;SDS011;8912;52.336;17.172;2022-07-25T09:14:04;1.40;;;1.25;;
17586;SDS011;8912;52.336;17.172;2022-07-25T09:16:36;2.33;;;1.40;;
17586;SDS011;8912;52.336;17.172;2022-07-25T09:19:08;2.95;;;1.30;;
17586;SDS011;8912;52.336;17.172;2022-07-25T09:21:38;3.40;;;1.67;;
17586;SDS011;8912;52.336;17.172;2022-07-25T09:24:10;5.50;;;1.42;;
17586;SDS011;8912;52.336;17.172;2022-07-25T09:26:42;1.98;;;1.35;;
17586;SDS011;8912;52.336;17.172;2022-07-25T09:29:28;1.52;;;1.42;;
17586;SDS011;8912;52.336;17.172;2022-07-25T09:32:00;12.57;;;1.67;;
17586;SDS011;8912;52.336;17.172;2022-07-25T09:34:41;1.73;;;1.45;;
17586;SDS011;8912;52.336;17.172;2022-07-25T09:37:12;4.03;;;1.15;;
17586;SDS011;8912;52.336;17.172;2022-07-25T09:39:43;1.98;;;1.25;;
17586;SDS011;8912;52.336;17.172;2022-07-25T09:42:20;3.70;;;1.20;;
17586;SDS011;8912;52.336;17.172;2022-07-25T09:44:58;2.90;;;1.10;;
17586;SDS011;8912;52.336;17.172;2022-07-25T09:47:33;1.33;;;1.23;;
17586;SDS011;8912;52.336;17.172;2022-07-25T09:50:03;2.22;;;1.45;;
17586;SDS011;8912;52.336;17.172;2022-07-25T09:52:33;3.60;;;1.40;;
17586;SDS011;8912;52.336;17.172;2022-07-25T09:55:04;5.18;;;1.30;;
17586;SDS011;8912;52.336;17.172;2022-07-25T09:57:35;1.30;;;1.20;;
17586;SDS011;8912;52.336;17.172;2022-07-25T10:00:06;1.65;;;1.20;;
17586;SDS011;8912;52.336;17.172;2022-07-25T10:02:40;1.27;;;1.13;;
17586;SDS011;8912;52.336;17.172;2022-07-25T10:05:15;2.28;;;1.40;;
17586;SDS011;8912;52.336;17.172;2022-07-25T10:07:53;7.50;;;1.40;;
17586;SDS011;8912;52.336;17.172;2022-07-25T10:10:24;8.50;;;1.23;;
17586;SDS011;8912;52.336;17.172;2022-07-25T10:13:01;3.88;;;1.20;;
17586;SDS011;8912;52.336;17.172;2022-07-25T10:15:48;7.65;;;1.67;;
17586;SDS011;8912;52.336;17.172;2022-07-25T10:18:18;5.00;;;1.25;;
17586;SDS011;8912;52.336;17.172;2022-07-25T10:20:50;3.92;;;1.33;;
17586;SDS011;8912;52.336;17.172;2022-07-25T10:23:21;1.90;;;1.10;;
17586;SDS011;8912;52.336;17.172;2022-07-25T10:25:58;1.95;;;1.10;;
17586;SDS011;8912;52.336;17.172;2022-07-25T10:28:35;3.58;;;1.10;;
17586;SDS011;8912;52.336;17.172;2022-07-25T10:31:32;10.30;;;1.45;;
17586;SDS011;8912;52.336;17.172;2022-07-25T10:34:04;8.57;;;1.50;;
17586;SDS011;8912;52.336;17.172;2022-07-25T10:36:40;1.02;;;0.93;;
17586;SDS011;8912;52.336;17.172;2022-07-25T10:39:11;4.45;;;1.02;;
17586;SDS011;8912;52.336;17.172;2022-07-25T10:41:41;2.42;;;1.45;;
17586;SDS011;8912;52.336;17.172;2022-07-25T10:44:12;6.18;;;1.42;;
17586;SDS011;8912;52.336;17.172;2022-07-25T10:46:44;4.05;;;1.65;;
17586;SDS011;8912;52.336;17.172;2022-07-25T10:49:18;2.53;;;1.10;;
17586;SDS011;8912;52.336;17.172;2022-07-25T10:51:58;1.95;;;0.95;;
17586;SDS011;8912;52.336;17.172;2022-07-25T10:54:31;4.57;;;1.27;;
17586;SDS011;8912;52.336;17.172;2022-07-25T10:57:02;4.00;;;0.80;;
17586;SDS011;8912;52.336;17.172;2022-07-25T10:59:32;0.93;;;0.93;;
17586;SDS011;8912;52.336;17.172;2022-07-25T11:02:06;1.17;;;0.88;;
17586;SDS011;8912;52.336;17.172;2022-07-25T11:04:42;1.20;;;1.10;;
17586;SDS011;8912;52.336;17.172;2022-07-25T11:07:13;1.67;;;1.10;;
17586;SDS011;8912;52.336;17.172;2022-07-25T11:09:43;5.57;;;1.20;;
17586;SDS011;8912;52.336;17.172;2022-07-25T11:12:22;1.45;;;1.10;;
17586;SDS011;8912;52.336;17.172;2022-07-25T11:14:54;2.25;;;1.08;;
17586;SDS011;8912;52.336;17.172;2022-07-25T11:17:28;0.98;;;0.90;;
17586;SDS011;8912;52.336;17.172;2022-07-25T11:19:57;2.08;;;1.08;;
17586;SDS011;8912;52.336;17.172;2022-07-25T11:22:27;3.17;;;1.17;;
17586;SDS011;8912;52.336;17.172;2022-07-25T11:24:57;5.68;;;1.17;;
17586;SDS011;8912;52.336;17.172;2022-07-25T11:27:27;1.33;;;1.23;;
17586;SDS011;8912;52.336;17.172;2022-07-25T11:30:04;1.00;;;1.00;;
17586;SDS011;8912;52.336;17.172;2022-07-25T11:32:39;1.85;;;1.10;;
17586;SDS011;8912;52.336;17.172;2022-07-25T11:35:09;2.83;;;1.00;;
17586;SDS011;8912;52.336;17.172;2022-07-25T11:37:40;1.83;;;1.30;;
17586;SDS011;8912;52.336;17.172;2022-07-25T11:40:14;2.33;;;1.08;;
17586;SDS011;8912;52.336;17.172;2022-07-25T11:42:45;2.85;;;1.10;;
17586;SDS011;8912;52.336;17.172;2022-07-25T11:45:15;2.35;;;0.90;;
17586;SDS011;8912;52.336;17.172;2022-07-25T11:47:48;1.10;;;1.00;;
17586;SDS011;8912;52.336;17.172;2022-07-25T11:50:27;2.90;;;1.20;;
17586;SDS011;8912;52.336;17.172;2022-07-25T11:53:00;2.03;;;1.58;;
17586;SDS011;8912;52.336;17.172;2022-07-25T11:55:30;3.22;;;1.48;;
17586;SDS011;8912;52.336;17.172;2022-07-25T11:58:02;1.55;;;1.20;;
17586;SDS011;8912;52.336;17.172;2022-07-25T12:00:32;4.03;;;1.30;;
17586;SDS011;8912;52.336;17.172;2022-07-25T12:03:08;4.35;;;1.10;;
17586;SDS011;8912;52.336;17.172;2022-07-25T12:05:45;3.88;;;1.35;;
17586;SDS011;8912;52.336;17.172;2022-07-25T12:08:16;1.52;;;1.10;;
17586;SDS011;8912;52.336;17.172;2022-07-25T12:10:46;1.25;;;1.05;;
17586;SDS011;8912;52.336;17.172;2022-07-25T12:13:21;2.45;;;1.13;;
17586;SDS011;8912;52.336;17.172;2022-07-25T12:15:51;1.20;;;1.10;;
17586;SDS011;8912;52.336;17.172;2022-07-25T12:18:22;1.67;;;1.17;;
17586;SDS011;8912;52.336;17.172;2022-07-25T12:20:50;2.45;;;1.42;;
17586;SDS011;8912;52.336;17.172;2022-07-25T12:23:19;7.63;;;1.52;;
17586;SDS011;8912;52.336;17.172;2022-07-25T12:25:48;3.08;;;1.23;;
17586;SDS011;8912;52.336;17.172;2022-07-25T12:28:17;0.90;;;0.90;;
17586;SDS011;8912;52.336;17.172;2022-07-25T12:30:46;5.65;;;1.38;;
17586;SDS011;8912;52.336;17.172;2022-07-25T12:33:24;1.13;;;1.00;;
17586;SDS011;8912;52.336;17.172;2022-07-25T12:35:52;2.58;;;1.30;;
17586;SDS011;8912;52.336;17.172;2022-07-25T12:38:21;2.20;;;1.40;;
17586;SDS011;8912;52.336;17.172;2022-07-25T12:40:49;3.00;;;1.45;;
17586;SDS011;8912;52.336;17.172;2022-07-25T12:43:18;2.53;;;1.52;;
17586;SDS011;8912;52.336;17.172;2022-07-25T12:45:47;9.85;;;2.22;;
17586;SDS011;8912;52.336;17.172;2022-07-25T12:48:16;3.13;;;1.35;;
17586;SDS011;8912;52.336;17.172;2022-07-25T12:50:46;1.75;;;1.20;;
17586;SDS011;8912;52.336;17.172;2022-07-25T12:53:15;64.50;;;7.65;;
17586;SDS011;8912;52.336;17.172;2022-07-25T12:55:44;3.35;;;1.33;;
17586;SDS011;8912;52.336;17.172;2022-07-25T12:58:13;3.78;;;1.40;;
17586;SDS011;8912;52.336;17.172;2022-07-25T13:00:43;13.95;;;2.47;;
17586;SDS011;8912;52.336;17.172;2022-07-25T13:03:12;5.55;;;1.85;;
17586;SDS011;8912;52.336;17.172;2022-07-25T13:05:41;4.57;;;1.50;;
17586;SDS011;8912;52.336;17.172;2022-07-25T13:08:11;3.78;;;1.40;;
17586;SDS011;8912;52.336;17.172;2022-07-25T13:10:40;1.58;;;1.23;;
17586;SDS011;8912;52.336;17.172;2022-07-25T13:13:08;1.95;;;1.35;;
17586;SDS011;8912;52.336;17.172;2022-07-25T13:15:37;10.10;;;1.63;;
17586;SDS011;8912;52.336;17.172;2022-07-25T13:18:06;1.00;;;0.93;;
17586;SDS011;8912;52.336;17.172;2022-07-25T13:20:34;1.60;;;1.30;;
17586;SDS011;8912;52.336;17.172;2022-07-25T13:23:03;5.45;;;1.40;;
17586;SDS011;8912;52.336;17.172;2022-07-25T13:25:33;11.55;;;1.95;;
17586;SDS011;8912;52.336;17.172;2022-07-25T13:28:02;1.52;;;1.23;;
17586;SDS011;8912;52.336;17.172;2022-07-25T13:30:36;1.95;;;1.25;;
17586;SDS011;8912;52.336;17.172;2022-07-25T13:33:06;18.40;;;3.10;;
17586;SDS011;8912;52.336;17.172;2022-07-25T13:35:35;7.00;;;1.50;;
17586;SDS011;8912;52.336;17.172;2022-07-25T13:38:07;4.32;;;1.10;;
17586;SDS011;8912;52.336;17.172;2022-07-25T13:40:38;1.98;;;1.30;;
17586;SDS011;8912;52.336;17.172;2022-07-25T13:43:08;1.63;;;1.52;;
17586;SDS011;8912;52.336;17.172;2022-07-25T13:45:37;1.88;;;1.40;;
17586;SDS011;8912;52.336;17.172;2022-07-25T13:48:06;4.30;;;1.52;;
17586;SDS011;8912;52.336;17.172;2022-07-25T13:50:56;2.10;;;1.48;;
17586;SDS011;8912;52.336;17.172;2022-07-25T13:53:25;1.52;;;1.40;;
17586;SDS011;8912;52.336;17.172;2022-07-25T13:55:58;2.58;;;1.50;;
17586;SDS011;8912;52.336;17.172;2022-07-25T13:58:27;1.48;;;1.20;;
17586;SDS011;8912;52.336;17.172;2022-07-25T14:00:57;2.65;;;1.20;;
17586;SDS011;8912;52.336;17.172;2022-07-25T14:03:26;2.58;;;1.55;;
17586;SDS011;8912;52.336;17.172;2022-07-25T14:05:54;1.25;;;1.10;;
17586;SDS011;8912;52.336;17.172;2022-07-25T14:08:23;1.63;;;1.52;;
17586;SDS011;8912;52.336;17.172;2022-07-25T14:10:53;2.47;;;1.52;;
17586;SDS011;8912;52.336;17.172;2022-07-25T14:13:23;6.40;;;1.42;;
17586;SDS011;8912;52.336;17.172;2022-07-25T14:15:51;2.65;;;1.30;;
17586;SDS011;8912;52.336;17.172;2022-07-25T14:18:20;3.70;;;1.58;;
17586;SDS011;8912;52.336;17.172;2022-07-25T14:20:49;7.63;;;1.65;;
17586;SDS011;8912;52.336;17.172;2022-07-25T14:23:17;14.35;;;2.58;;
17586;SDS011;8912;52.336;17.172;2022-07-25T14:25:46;22.35;;;3.45;;
17586;SDS011;8912;52.336;17.172;2022-07-25T14:28:15;19.25;;;2.65;;
17586;SDS011;8912;52.336;17.172;2022-07-25T14:30:45;10.13;;;2.00;;
17586;SDS011;8912;52.336;17.172;2022-07-25T14:33:14;6.57;;;1.75;;
17586;SDS011;8912;52.336;17.172;2022-07-25T14:35:43;3.83;;;1.27;;
17586;SDS011;8912;52.336;17.172;2022-07-25T14:38:12;2.22;;;1.58;;
17586;SDS011;8912;52.336;17.172;2022-07-25T14:40:41;8.20;;;1.75;;
17586;SDS011;8912;52.336;17.172;2022-07-25T14:43:10;5.45;;;1.73;;
17586;SDS011;8912;52.336;17.172;2022-07-25T14:45:39;6.47;;;2.35;;
17586;SDS011;8912;52.336;17.172;2022-07-25T14:48:10;3.65;;;1.42;;
17586;SDS011;8912;52.336;17.172;2022-07-25T14:50:38;8.88;;;1.85;;
17586;SDS011;8912;52.336;17.172;2022-07-25T14:53:07;3.78;;;1.20;;
17586;SDS011;8912;52.336;17.172;2022-07-25T14:55:36;1.30;;;1.10;;
17586;SDS011;8912;52.336;17.172;2022-07-25T14:58:05;1.92;;;1.45;;
17586;SDS011;8912;52.336;17.172;2022-07-25T15:00:34;3.03;;;2.08;;
17586;SDS011;8912;52.336;17.172;2022-07-25T15:03:07;9.50;;;1.70;;
17586;SDS011;8912;52.336;17.172;2022-07-25T15:05:37;2.97;;;1.83;;